INFORMAÇÕES METEOROLÓGICAS
METAR FOR SKLC
ADDS - METARS form results

(1444 UTC 20 April 2019)
Data provider http://aviationweather.gov/metar/data/
 
METAR text: SKLC 201400Z 00000KT 1000 TSRA OVC003 25/24 A2995 RMK CB/W/AD BLW MNM MET
Conditions at: SKLC (APARTADO/LOS CED, CO) observed 1400 UTC 20 April 2019
Temperature: 25.0°C (77°F)
Dewpoint: 24.0°C (75°F) [RH = 94%]
Pressure (altimeter): 29.95 inches Hg (1014.3 mb)
Winds: calm
Visibility: 0.62 miles (1.00 km)
Ceiling: 300 feet AGL
Clouds: overcast cloud deck at 300 feet AGL
Weather: TSRA  (rain associated with thunderstorm(s))

 MAPA DO AEROPORTO

 INFORMAÇÕES DA PISTA
Pista 15 Tamanho da pista 7153 ft Largura da pista 98 ft
Elevação da pista 39 ft Ranhura da pista 0 ft Proa da pista 150
Pista 33 Tamanho da pista 7153 ft Largura da pista 98 ft
Elevação da pista 46 ft Ranhura da pista 0 ft Proa da pista 330

 FREQUÊNCIAS DO AEROPORTO
Tipo RDO Nome CAREPA RDO Frequência 348.8 MHZ
Tipo TWR Nome TWR Frequência 118.7 MHZ

 AUXÍLIOS DE NAVEGAÇÃO PRÓXIMOS AO AEROPORTO
Tipo VOR-DME Nome Los Cedros Frequência 112600 KHZ



Powered by Mercosul Lnhas Aereas